Time;durP1;ratioP1;P1;durP2;ratioP2;P2;SDS_P1;SDS_P2;PMS_P1;PMS_P2;Temp;Humidity;BMP_temperature;BMP_pressure;BME280_temperature;BME280_humidity;BME280_pressure;Samples;Min_cycle;Max_cycle;Signal;HPM_P1;HPM_P2
2021/11/29 00:01:23;;;;;;;;;;;1.20;99.90;;;;;;8415739;28;19924;-73
2021/11/29 00:05:25;;;;;;;;;;;1.20;99.90;;;;;;8428830;28;19927;-73
2021/11/29 00:09:27;;;;;;;;;;;1.30;99.90;;;;;;8421181;28;19931;-73
2021/11/29 00:13:29;;;;;;;;;;;1.30;99.90;;;;;;8435730;28;20287;-73
2021/11/29 00:17:30;;;;;;;;;;;1.30;99.90;;;;;;8418549;28;19930;-73
2021/11/29 00:21:32;;;;;;;;;;;1.30;99.90;;;;;;8427274;28;19937;-73
2021/11/29 00:25:34;;;;;;;;;;;1.20;99.90;;;;;;8431894;28;19946;-73
2021/11/29 00:29:35;;;;;;;;;;;1.30;99.90;;;;;;8460708;27;20378;-73
2021/11/29 00:33:37;;;;;;;;;;;1.30;99.90;;;;;;8418910;28;19924;-73
2021/11/29 00:37:39;;;;;;;;;;;1.20;99.90;;;;;;8437347;28;19920;-73
2021/11/29 00:41:40;;;;;;;;;;;1.20;99.90;;;;;;8420392;28;19960;-73
2021/11/29 00:45:42;;;;;;;;;;;1.20;99.90;;;;;;8418968;28;20260;-73
2021/11/29 00:49:44;;;;;;;;;;;1.10;99.90;;;;;;8430614;28;20431;-73
2021/11/29 00:53:47;;;;;;;;;;;1.10;99.90;;;;;;8415537;28;19982;-73
2021/11/29 00:57:48;;;;;;;;;;;1.10;99.90;;;;;;8409991;28;19920;-73
2021/11/29 01:01:50;;;;;;;;;;;1.10;99.90;;;;;;8419528;28;20217;-73
2021/11/29 01:05:51;;;;;;;;;;;1.20;99.90;;;;;;8422124;28;19924;-73
2021/11/29 01:09:53;;;;;;;;;;;1.20;99.90;;;;;;8420853;28;19927;-73
2021/11/29 01:13:55;;;;;;;;;;;1.30;99.90;;;;;;8419823;28;19963;-73
2021/11/29 01:17:57;;;;;;;;;;;1.30;99.90;;;;;;8424806;28;19919;-73
2021/11/29 01:21:58;;;;;;;;;;;1.40;99.90;;;;;;8422211;28;19962;-73
2021/11/29 01:26:00;;;;;;;;;;;1.50;99.90;;;;;;8429153;28;20395;-73
2021/11/29 01:30:03;;;;;;;;;;;1.50;99.90;;;;;;8425126;28;19928;-73
2021/11/29 01:34:04;;;;;;;;;;;1.50;99.90;;;;;;8437106;28;19919;-73
2021/11/29 01:38:07;;;;;;;;;;;1.50;99.90;;;;;;8422417;28;19974;-73
2021/11/29 01:42:09;;;;;;;;;;;1.50;99.90;;;;;;8426213;28;19923;-73
2021/11/29 01:46:11;;;;;;;;;;;1.50;99.90;;;;;;8420210;28;19925;-73
2021/11/29 01:50:12;;;;;;;;;;;1.50;99.90;;;;;;8424525;28;19927;-73
2021/11/29 01:54:14;;;;;;;;;;;1.50;99.90;;;;;;8416093;28;19920;-73
2021/11/29 01:58:16;;;;;;;;;;;1.50;99.90;;;;;;8419439;28;19920;-73
2021/11/29 02:02:18;;;;;;;;;;;1.50;99.90;;;;;;8423471;28;19991;-73
2021/11/29 02:06:20;;;;;;;;;;;1.50;99.90;;;;;;8434758;28;20345;-73
2021/11/29 02:10:23;;;;;;;;;;;1.50;99.90;;;;;;8430566;28;19971;-73
2021/11/29 02:14:24;;;;;;;;;;;1.40;99.90;;;;;;8426990;28;19955;-73
2021/11/29 02:18:32;;;;;;;;;;;1.40;99.90;;;;;;8431964;28;20379;-73
2021/11/29 02:22:34;;;;;;;;;;;1.40;99.90;;;;;;8422238;28;20291;-73
2021/11/29 02:26:36;;;;;;;;;;;1.40;99.90;;;;;;8407315;28;19970;-73
2021/11/29 02:30:38;;;;;;;;;;;1.40;99.90;;;;;;8424099;28;19928;-73
2021/11/29 02:34:40;;;;;;;;;;;1.40;99.90;;;;;;8422112;28;20364;-73
2021/11/29 02:38:41;;;;;;;;;;;1.30;99.90;;;;;;8411267;28;19960;-73
2021/11/29 02:42:43;;;;;;;;;;;1.30;99.90;;;;;;8420202;28;19927;-73
2021/11/29 02:46:45;;;;;;;;;;;1.30;99.90;;;;;;8425545;28;19920;-73
2021/11/29 02:50:47;;;;;;;;;;;1.30;99.90;;;;;;8423018;28;19928;-73
2021/11/29 02:54:49;;;;;;;;;;;1.20;99.90;;;;;;8423428;28;19963;-73
2021/11/29 02:58:50;;;;;;;;;;;1.20;99.90;;;;;;8419644;28;20308;-73
2021/11/29 03:03:05;;;;;;;;;;;1.20;99.90;;;;;;8420384;28;19924;-73
2021/11/29 03:07:08;;;;;;;;;;;1.20;99.90;;;;;;8427208;28;19943;-73
2021/11/29 03:11:10;;;;;;;;;;;1.10;99.90;;;;;;8424629;28;19920;-73
2021/11/29 03:15:11;;;;;;;;;;;1.10;99.90;;;;;;8422666;28;19920;-73
2021/11/29 03:19:13;;;;;;;;;;;1.10;99.90;;;;;;8421776;28;19955;-73
2021/11/29 03:23:15;;;;;;;;;;;1.10;99.90;;;;;;8424267;28;20407;-73
2021/11/29 03:27:16;;;;;;;;;;;1.10;99.90;;;;;;8426235;28;19924;-73
2021/11/29 03:31:18;;;;;;;;;;;1.20;99.90;;;;;;8423157;28;19935;-73
2021/11/29 03:35:20;;;;;;;;;;;1.20;99.90;;;;;;8421352;28;19926;-73
2021/11/29 03:39:23;;;;;;;;;;;1.20;99.90;;;;;;8420754;28;20309;-73
2021/11/29 03:43:25;;;;;;;;;;;1.20;99.90;;;;;;8420457;28;19974;-73
2021/11/29 03:47:27;;;;;;;;;;;1.30;99.90;;;;;;8423658;28;19920;-73
2021/11/29 03:51:28;;;;;;;;;;;1.30;99.90;;;;;;8423988;28;19986;-73
2021/11/29 03:55:30;;;;;;;;;;;1.30;99.90;;;;;;8417806;28;19923;-73
2021/11/29 03:59:32;;;;;;;;;;;1.30;99.90;;;;;;8420520;28;19959;-73
2021/11/29 04:03:34;;;;;;;;;;;1.40;99.90;;;;;;8415613;28;19964;-73
2021/11/29 04:07:36;;;;;;;;;;;1.40;99.90;;;;;;8423496;28;19971;-73
2021/11/29 04:11:37;;;;;;;;;;;1.40;99.90;;;;;;8422797;28;19919;-73
2021/11/29 04:15:39;;;;;;;;;;;1.40;99.90;;;;;;8421187;28;19978;-73
2021/11/29 04:19:44;;;;;;;;;;;1.40;99.90;;;;;;8420267;28;19927;-73
2021/11/29 04:23:47;;;;;;;;;;;1.50;99.90;;;;;;8418934;28;19956;-73
2021/11/29 04:27:49;;;;;;;;;;;1.50;99.90;;;;;;8425208;28;19931;-73
2021/11/29 04:31:51;;;;;;;;;;;1.50;99.90;;;;;;8416722;28;19928;-73
2021/11/29 04:35:52;;;;;;;;;;;1.50;99.90;;;;;;8417467;28;19919;-73
2021/11/29 04:39:54;;;;;;;;;;;1.50;99.90;;;;;;8417134;28;19927;-73
2021/11/29 04:43:55;;;;;;;;;;;1.40;99.90;;;;;;8422025;28;20350;-73
2021/11/29 04:47:57;;;;;;;;;;;1.40;99.90;;;;;;8415129;28;19920;-73
2021/11/29 04:52:00;;;;;;;;;;;1.40;99.90;;;;;;8423193;28;19982;-73
2021/11/29 04:56:02;;;;;;;;;;;1.50;99.90;;;;;;8416472;28;19970;-73
2021/11/29 05:00:05;;;;;;;;;;;1.50;99.90;;;;;;8411487;28;20290;-73
2021/11/29 05:04:07;;;;;;;;;;;1.50;99.90;;;;;;8417860;28;19924;-73
2021/11/29 05:08:09;;;;;;;;;;;1.50;99.90;;;;;;8414494;28;19940;-73
2021/11/29 05:12:13;;;;;;;;;;;1.50;99.90;;;;;;8426694;28;19964;-72
2021/11/29 05:16:15;;;;;;;;;;;1.50;99.90;;;;;;8427530;28;19934;-74
2021/11/29 05:20:17;;;;;;;;;;;1.50;99.90;;;;;;8439193;27;19986;-73
2021/11/29 05:24:18;;;;;;;;;;;1.50;99.90;;;;;;8436871;28;20283;-73
2021/11/29 05:28:20;;;;;;;;;;;1.60;99.90;;;;;;8435516;28;19920;-72
2021/11/29 05:32:22;;;;;;;;;;;1.60;99.90;;;;;;8428894;28;19931;-73
2021/11/29 05:36:23;;;;;;;;;;;1.60;99.90;;;;;;8423213;28;19920;-73
2021/11/29 05:40:25;;;;;;;;;;;1.60;99.90;;;;;;8459707;27;20364;-73
2021/11/29 05:44:27;;;;;;;;;;;1.60;99.90;;;;;;8428346;28;20382;-73
2021/11/29 05:48:29;;;;;;;;;;;1.60;99.90;;;;;;8419836;28;19974;-73
2021/11/29 05:52:32;;;;;;;;;;;1.60;99.90;;;;;;8424903;28;19948;-73
2021/11/29 05:56:34;;;;;;;;;;;1.50;99.90;;;;;;8429463;28;19927;-73
2021/11/29 06:00:36;;;;;;;;;;;1.50;99.90;;;;;;8423454;28;19939;-73
2021/11/29 06:04:42;;;;;;;;;;;1.50;99.90;;;;;;8423949;27;19927;-73
2021/11/29 06:08:44;;;;;;;;;;;1.50;99.90;;;;;;8422518;28;20049;-73
2021/11/29 06:12:46;;;;;;;;;;;1.40;99.90;;;;;;8429488;28;20291;-73
2021/11/29 06:16:47;;;;;;;;;;;1.40;99.90;;;;;;8438952;28;19920;-73
2021/11/29 06:20:49;;;;;;;;;;;1.30;99.90;;;;;;8425295;28;19931;-73
2021/11/29 06:24:51;;;;;;;;;;;1.40;99.90;;;;;;8425333;28;19924;-73
2021/11/29 06:28:52;;;;;;;;;;;1.40;99.90;;;;;;8426167;28;19924;-74
2021/11/29 06:32:54;;;;;;;;;;;1.50;99.90;;;;;;8428203;28;19927;-73
2021/11/29 06:36:57;;;;;;;;;;;1.60;99.90;;;;;;8423534;28;19919;-74
2021/11/29 06:40:59;;;;;;;;;;;1.60;99.90;;;;;;8409498;28;19967;-73
2021/11/29 06:45:00;;;;;;;;;;;1.70;99.90;;;;;;8459852;27;19920;-73
2021/11/29 06:49:02;;;;;;;;;;;1.70;99.90;;;;;;8431276;28;20411;-73
2021/11/29 06:53:04;;;;;;;;;;;1.80;99.90;;;;;;8424732;28;20363;-73
2021/11/29 06:57:06;;;;;;;;;;;1.80;99.90;;;;;;8422238;28;19927;-73
2021/11/29 07:01:07;;;;;;;;;;;1.90;99.90;;;;;;8433579;28;20284;-73
2021/11/29 07:05:09;;;;;;;;;;;2.00;99.90;;;;;;8427490;28;19942;-73
2021/11/29 07:09:11;;;;;;;;;;;2.00;99.90;;;;;;8422425;28;19928;-73
2021/11/29 07:13:14;;;;;;;;;;;2.10;99.90;;;;;;8424575;28;19930;-74
2021/11/29 07:17:15;;;;;;;;;;;2.20;99.90;;;;;;8438862;28;19919;-73
2021/11/29 07:21:17;;;;;;;;;;;2.20;99.90;;;;;;8425698;28;19920;-73
2021/11/29 07:25:19;;;;;;;;;;;2.30;99.90;;;;;;8416907;28;19975;-73
2021/11/29 07:29:20;;;;;;;;;;;2.40;99.90;;;;;;8425535;28;19919;-73
2021/11/29 07:33:25;;;;;;;;;;;2.50;99.90;;;;;;8415496;28;19932;-73
2021/11/29 07:37:27;;;;;;;;;;;2.60;99.90;;;;;;8420959;28;20379;-73
2021/11/29 07:41:28;;;;;;;;;;;2.70;99.90;;;;;;8420550;28;19926;-73
2021/11/29 07:45:30;;;;;;;;;;;2.80;99.90;;;;;;8420371;28;20288;-73
2021/11/29 07:49:32;;;;;;;;;;;2.90;99.90;;;;;;8419490;28;19920;-73
2021/11/29 07:53:34;;;;;;;;;;;2.90;99.90;;;;;;8420272;28;19970;-73
2021/11/29 07:57:35;;;;;;;;;;;2.90;99.90;;;;;;8416104;28;19927;-73
2021/11/29 08:01:37;;;;;;;;;;;3.00;99.90;;;;;;8413359;28;19920;-74
2021/11/29 08:05:39;;;;;;;;;;;3.00;99.90;;;;;;8423435;28;19965;-73
2021/11/29 08:09:41;;;;;;;;;;;3.00;99.90;;;;;;8420901;28;19923;-74
2021/11/29 08:13:43;;;;;;;;;;;3.00;99.90;;;;;;8457416;27;19928;-74
2021/11/29 08:17:44;;;;;;;;;;;3.00;99.90;;;;;;8418857;28;19919;-73
2021/11/29 08:21:46;;;;;;;;;;;3.00;99.90;;;;;;8424348;28;19920;-73
2021/11/29 08:25:47;;;;;;;;;;;3.00;99.90;;;;;;8423480;28;19931;-74
2021/11/29 08:29:49;;;;;;;;;;;3.00;99.90;;;;;;8420964;28;19931;-73
2021/11/29 08:33:51;;;;;;;;;;;3.10;99.90;;;;;;8420518;28;20035;-74
2021/11/29 08:37:54;;;;;;;;;;;3.20;99.90;;;;;;8420895;28;20242;-73
2021/11/29 08:41:56;;;;;;;;;;;3.30;99.90;;;;;;8424778;28;19920;-74
2021/11/29 08:45:58;;;;;;;;;;;3.40;99.90;;;;;;8417257;28;20330;-73
2021/11/29 08:49:59;;;;;;;;;;;3.60;99.90;;;;;;8427376;28;20267;-73
2021/11/29 08:54:18;;;;;;;;;;;3.80;99.90;;;;;;8421749;28;19924;-73
2021/11/29 08:58:19;;;;;;;;;;;4.00;99.90;;;;;;8420998;28;20303;-74
2021/11/29 09:02:21;;;;;;;;;;;4.30;99.90;;;;;;8430068;28;19971;-73
2021/11/29 09:06:23;;;;;;;;;;;4.70;99.90;;;;;;8418845;28;19924;-74
2021/11/29 09:10:24;;;;;;;;;;;5.10;99.90;;;;;;8427471;28;19920;-73
2021/11/29 09:14:26;;;;;;;;;;;5.50;99.90;;;;;;8430245;28;20061;-73
2021/11/29 09:18:28;;;;;;;;;;;5.60;99.90;;;;;;8442295;28;19966;-74
2021/11/29 09:22:30;;;;;;;;;;;5.60;99.90;;;;;;8423157;28;19924;-73
2021/11/29 09:26:31;;;;;;;;;;;5.40;99.90;;;;;;8424333;28;19978;-74
2021/11/29 09:30:33;;;;;;;;;;;5.20;99.90;;;;;;8442676;28;19927;-73
2021/11/29 09:34:34;;;;;;;;;;;5.10;99.90;;;;;;8427758;28;19920;-74
2021/11/29 09:38:36;;;;;;;;;;;5.10;99.90;;;;;;8419627;28;19960;-74
2021/11/29 09:42:38;;;;;;;;;;;5.10;99.90;;;;;;8439684;28;19920;-73
2021/11/29 09:46:45;;;;;;;;;;;5.10;99.90;;;;;;8459203;27;19964;-74
2021/11/29 09:50:48;;;;;;;;;;;5.10;99.90;;;;;;8421743;28;19932;-73
2021/11/29 09:54:50;;;;;;;;;;;5.10;99.90;;;;;;8425075;28;20375;-73
2021/11/29 09:58:52;;;;;;;;;;;5.40;99.90;;;;;;8423508;28;19924;-73
2021/11/29 10:02:54;;;;;;;;;;;5.50;99.90;;;;;;8423771;28;19952;-73
2021/11/29 10:06:59;;;;;;;;;;;5.70;99.90;;;;;;8424621;28;19919;-73
2021/11/29 10:11:11;;;;;;;;;;;5.90;99.90;;;;;;8424906;28;19928;-73
2021/11/29 10:15:17;;;;;;;;;;;6.10;99.90;;;;;;8422873;28;20287;-73
2021/11/29 10:19:19;;;;;;;;;;;6.30;99.90;;;;;;8419097;28;19920;-73
2021/11/29 10:23:24;;;;;;;;;;;6.50;99.90;;;;;;8420293;28;20371;-73
2021/11/29 10:27:36;;;;;;;;;;;7.00;99.90;;;;;;8450290;27;20300;-73
2021/11/29 10:31:41;;;;;;;;;;;7.70;99.90;;;;;;8435812;28;20374;-73
2021/11/29 10:35:43;;;;;;;;;;;8.50;99.90;;;;;;8421738;28;20460;-73
2021/11/29 10:39:45;;;;;;;;;;;9.20;99.90;;;;;;8422577;28;20325;-73
2021/11/29 10:43:51;;;;;;;;;;;10.00;99.90;;;;;;8457620;27;20263;-73
2021/11/29 10:47:54;;;;;;;;;;;10.70;99.90;;;;;;8426041;28;20402;-73
2021/11/29 10:51:57;;;;;;;;;;;11.30;99.90;;;;;;8422952;28;19920;-73
2021/11/29 10:56:00;;;;;;;;;;;11.80;99.90;;;;;;8425048;28;19982;-74
2021/11/29 11:00:05;;;;;;;;;;;12.30;99.90;;;;;;8413964;28;19924;-73
2021/11/29 11:04:27;;;;;;;;;;;12.70;99.90;;;;;;8419495;28;19971;-73
2021/11/29 11:08:33;;;;;;;;;;;13.10;99.90;;;;;;8413922;28;19920;-74
2021/11/29 11:12:36;;;;;;;;;;;13.50;99.90;;;;;;8422125;28;19923;-73
2021/11/29 11:16:42;;;;;;;;;;;13.80;99.90;;;;;;8420524;28;19920;-74
2021/11/29 11:20:47;;;;;;;;;;;14.00;99.90;;;;;;8424444;28;19924;-73
2021/11/29 11:24:51;;;;;;;;;;;14.30;99.90;;;;;;8430493;28;20359;-73
2021/11/29 11:28:53;;;;;;;;;;;14.80;99.90;;;;;;8432655;28;19974;-74
2021/11/29 11:33:09;;;;;;;;;;;15.00;99.90;;;;;;8419667;28;19920;-73
2021/11/29 11:37:13;;;;;;;;;;;14.80;99.90;;;;;;8423550;28;19955;-74
2021/11/29 11:41:15;;;;;;;;;;;14.70;99.90;;;;;;8437830;28;19920;-73
2021/11/29 11:45:21;;;;;;;;;;;14.80;99.90;;;;;;8420071;28;20398;-73
2021/11/29 11:49:22;;;;;;;;;;;14.90;99.90;;;;;;8428722;28;19978;-73
2021/11/29 11:53:24;;;;;;;;;;;14.90;99.90;;;;;;8424756;28;19932;-72
2021/11/29 11:57:27;;;;;;;;;;;14.80;99.90;;;;;;8419214;28;19920;-72
2021/11/29 12:01:29;;;;;;;;;;;14.90;99.90;;;;;;8415480;28;19971;-71
2021/11/29 12:05:34;;;;;;;;;;;15.20;99.90;;;;;;8427067;28;19923;-72
2021/11/29 12:09:50;;;;;;;;;;;15.40;99.90;;;;;;8425156;28;19928;-71
2021/11/29 12:14:13;;;;;;;;;;;15.50;99.90;;;;;;8423932;28;19970;-72
2021/11/29 12:18:34;;;;;;;;;;;15.70;99.90;;;;;;8418128;28;19939;-71
2021/11/29 12:22:36;;;;;;;;;;;15.70;99.90;;;;;;8421658;28;19920;-72
2021/11/29 12:26:50;;;;;;;;;;;15.60;99.90;;;;;;8419669;28;19970;-72
2021/11/29 12:30:52;;;;;;;;;;;15.60;99.90;;;;;;8421471;28;19931;-71
2021/11/29 12:34:55;;;;;;;;;;;15.80;99.90;;;;;;8422598;28;19951;-71
2021/11/29 12:38:57;;;;;;;;;;;16.00;99.90;;;;;;8419386;28;19928;-73
2021/11/29 12:43:00;;;;;;;;;;;15.80;99.90;;;;;;8420939;28;19927;-73
2021/11/29 12:47:15;;;;;;;;;;;14.90;99.90;;;;;;8416074;28;19921;-73
2021/11/29 12:51:37;;;;;;;;;;;13.90;99.90;;;;;;8406256;28;19927;-74
2021/11/29 12:55:39;;;;;;;;;;;13.10;99.90;;;;;;8410526;28;19967;-73
2021/11/29 12:59:50;;;;;;;;;;;13.40;99.90;;;;;;8419272;28;19932;-73
2021/11/29 13:03:53;;;;;;;;;;;14.00;99.90;;;;;;8388555;28;20007;-73
2021/11/29 13:08:26;;;;;;;;;;;13.90;99.90;;;;;;8391129;28;20717;-73
2021/11/29 13:12:28;;;;;;;;;;;14.00;99.90;;;;;;8377179;28;20344;-74
2021/11/29 13:16:32;;;;;;;;;;;13.40;99.90;;;;;;8388595;28;20311;-73
2021/11/29 13:20:44;;;;;;;;;;;12.80;99.90;;;;;;8393071;28;19985;-74
2021/11/29 13:24:50;;;;;;;;;;;12.40;99.90;;;;;;8399950;28;19963;-74
2021/11/29 13:28:53;;;;;;;;;;;12.00;99.90;;;;;;8393314;28;19924;-73
2021/11/29 13:32:56;;;;;;;;;;;11.60;99.90;;;;;;8390856;28;19928;-73
2021/11/29 13:36:58;;;;;;;;;;;11.50;99.90;;;;;;8391282;28;19920;-74
2021/11/29 13:41:00;;;;;;;;;;;11.30;99.90;;;;;;8394093;28;19951;-73
2021/11/29 13:45:32;;;;;;;;;;;11.00;99.90;;;;;;8392203;28;19920;-73
2021/11/29 13:49:38;;;;;;;;;;;10.80;99.90;;;;;;8389026;28;19924;-73
2021/11/29 13:53:42;;;;;;;;;;;10.80;99.90;;;;;;8402390;28;20403;-73
2021/11/29 13:57:48;;;;;;;;;;;10.70;99.90;;;;;;8391391;28;19928;-73
2021/11/29 14:01:50;;;;;;;;;;;10.40;99.90;;;;;;8391031;28;19920;-73
2021/11/29 14:06:05;;;;;;;1.20;0.47;;;10.10;99.90;;;;;;8391148;28;19920;-73
2021/11/29 14:10:07;;;;;;;;;;;9.80;99.90;;;;;;8390713;28;20122;-73
2021/11/29 14:14:11;;;;;;;;;;;9.50;99.90;;;;;;8393951;28;19962;-73
2021/11/29 14:18:13;;;;;;;;;;;9.30;99.90;;;;;;8389965;28;19920;-74
2021/11/29 14:22:14;;;;;;;;;;;9.10;99.90;;;;;;8390575;28;20015;-73
2021/11/29 14:26:25;;;;;;;;;;;8.90;99.90;;;;;;8391187;28;19935;-73
2021/11/29 14:30:30;;;;;;;;;;;8.80;99.90;;;;;;8406088;28;20449;-74
2021/11/29 14:34:33;;;;;;;;;;;8.80;99.90;;;;;;8389858;28;20363;-73
2021/11/29 14:38:46;;;;;;;;;;;8.80;99.90;;;;;;8390929;28;20260;-73
2021/11/29 14:42:50;;;;;;;;;;;8.70;99.90;;;;;;8392061;28;19978;-73
2021/11/29 14:46:52;;;;;;;;;;;8.60;99.90;;;;;;8388341;28;19928;-73
2021/11/29 14:50:53;;;;;;;;;;;8.40;99.90;;;;;;8388876;28;19920;-73
2021/11/29 14:54:55;;;;;;;;;;;8.30;99.90;;;;;;8390106;28;19920;-74
2021/11/29 14:58:57;;;;;;;;;;;8.20;99.90;;;;;;8405382;28;19975;-73
2021/11/29 15:03:03;;;;;;;;;;;8.10;99.90;;;;;;8390538;28;20359;-73
2021/11/29 15:07:14;;;;;;;;;;;8.00;99.90;;;;;;8388023;28;20023;-73
2021/11/29 15:11:17;;;;;;;;;;;7.80;99.90;;;;;;8387412;28;19927;-73
2021/11/29 15:15:19;;;;;;;;;;;7.70;99.90;;;;;;8390477;28;20333;-73
2021/11/29 15:19:21;;;;;;;;;;;7.60;99.90;;;;;;8392518;28;19980;-73
2021/11/29 15:23:29;;;;;;;;;;;7.50;99.90;;;;;;8391475;28;19920;-73
2021/11/29 15:27:36;;;;;;;;;;;7.50;99.90;;;;;;8389169;28;19967;-73
2021/11/29 15:31:38;;;;;;;;;;;7.30;99.90;;;;;;8388889;28;20295;-73
2021/11/29 15:35:44;;;;;;;;;;;7.30;99.90;;;;;;8392589;28;20272;-73
2021/11/29 15:39:46;;;;;;;;;;;7.20;99.90;;;;;;8389975;28;20022;-73
2021/11/29 15:43:51;;;;;;;;;;;7.20;99.90;;;;;;8390195;28;20007;-73
2021/11/29 15:47:53;;;;;;;;;;;7.20;99.90;;;;;;8389611;28;19974;-73
2021/11/29 15:51:55;;;;;;;;;;;7.10;99.90;;;;;;8386665;28;19920;-73
2021/11/29 15:55:59;;;;;;;;;;;7.00;99.90;;;;;;8382035;28;19943;-73
2021/11/29 16:00:02;;;;;;;;;;;6.90;99.90;;;;;;8388909;28;19924;-73
2021/11/29 16:04:05;;;;;;;;;;;6.80;99.90;;;;;;8408456;28;20003;-74
2021/11/29 16:08:07;;;;;;;;;;;6.70;99.90;;;;;;8401238;28;20371;-73
2021/11/29 16:12:09;;;;;;;;;;;6.60;99.90;;;;;;8418874;27;19927;-73
2021/11/29 16:16:11;;;;;;;1.60;0.80;;;6.50;99.90;;;;;;8391522;28;19920;-73
2021/11/29 16:20:13;;;;;;;3.58;1.15;;;6.40;99.90;;;;;;8386421;28;20098;-74
2021/11/29 16:24:17;;;;;;;2.42;0.95;;;6.30;99.90;;;;;;8391375;28;20054;-74
2021/11/29 16:28:19;;;;;;;1.98;0.93;;;6.20;99.90;;;;;;8389489;28;20072;-74
2021/11/29 16:32:21;;;;;;;2.60;0.90;;;6.20;99.90;;;;;;8390308;28;20040;-73
2021/11/29 16:36:22;;;;;;;3.30;1.00;;;6.10;99.90;;;;;;8387233;28;20128;-73
2021/11/29 16:40:26;;;;;;;2.22;0.90;;;6.10;99.90;;;;;;8390974;28;20128;-74
2021/11/29 16:44:28;;;;;;;2.30;0.98;;;6.10;99.90;;;;;;8393090;28;20072;-74
2021/11/29 16:48:33;;;;;;;2.25;1.10;;;6.10;99.90;;;;;;8391396;28;20396;-74
2021/11/29 16:52:35;;;;;;;2.60;1.08;;;6.10;99.90;;;;;;8394307;28;20407;-73
2021/11/29 16:56:38;;;;;;;3.00;1.05;;;6.10;99.90;;;;;;8388611;28;20036;-73
2021/11/29 17:00:40;;;;;;;1.88;0.90;;;6.10;99.90;;;;;;8388596;28;20044;-73
2021/11/29 17:04:42;;;;;;;2.13;0.82;;;6.10;99.90;;;;;;8422979;27;20057;-74
2021/11/29 17:08:44;;;;;;;2.70;0.80;;;6.20;99.90;;;;;;8405691;28;20055;-73
2021/11/29 17:12:45;;;;;;;1.70;0.73;;;6.20;99.90;;;;;;8395669;28;20230;-74
2021/11/29 17:16:47;;;;;;;0.88;0.70;;;6.30;99.90;;;;;;8430219;27;20441;-73
2021/11/29 17:20:49;;;;;;;1.80;0.70;;;6.40;99.90;;;;;;8413659;28;20082;-73
2021/11/29 17:24:51;;;;;;;;;;;6.50;99.90;;;;;;8400859;28;20516;-73
2021/11/29 17:28:52;;;;;;;;;;;6.50;99.90;;;;;;8398305;28;20417;-73
2021/11/29 17:32:54;;;;;;;;;;;6.50;99.90;;;;;;8395017;28;20012;-73
2021/11/29 17:36:56;;;;;;;;;;;6.40;99.90;;;;;;8394424;28;20024;-74
2021/11/29 17:40:58;;;;;;;;;;;6.40;99.90;;;;;;8397699;28;19959;-74
2021/11/29 17:45:00;;;;;;;;;;;6.30;99.90;;;;;;8395148;28;20043;-73
2021/11/29 17:49:02;;;;;;;;;;;6.30;99.90;;;;;;8396861;28;20354;-73
2021/11/29 17:53:04;;;;;;;;;;;6.30;99.90;;;;;;8396070;28;19986;-74
2021/11/29 17:57:05;;;;;;;;;;;6.30;99.90;;;;;;8389695;28;19920;-73
2021/11/29 18:01:08;;;;;;;;;;;6.20;99.90;;;;;;8399868;28;19979;-73
2021/11/29 18:05:10;;;;;;;;;;;6.20;99.90;;;;;;8397739;28;19967;-73
2021/11/29 18:13:14;;;;;;;;;;;6.30;99.90;;;;;;8395843;28;19947;-74
2021/11/29 18:17:17;;;;;;;;;;;6.30;99.90;;;;;;8422591;27;19985;-73
2021/11/29 18:21:20;;;;;;;;;;;6.30;99.90;;;;;;8390259;28;19920;-73
2021/11/29 18:25:23;;;;;;;;;;;6.30;99.90;;;;;;8389511;28;19928;-73
2021/11/29 18:29:25;;;;;;;;;;;6.30;99.90;;;;;;8406074;28;20291;-74
2021/11/29 18:33:27;;;;;;;;;;;6.30;99.90;;;;;;8395385;28;19920;-73
2021/11/29 18:37:28;;;;;;;;;;;6.30;99.90;;;;;;8412192;27;19960;-73
2021/11/29 18:41:30;;;;;;;;;;;6.30;99.90;;;;;;8421091;27;19925;-73
2021/11/29 18:45:40;;;;;;;;;;;6.30;99.90;;;;;;8385014;28;20019;-73
2021/11/29 18:49:41;;;;;;;;;;;6.30;99.90;;;;;;8385920;28;19948;-73
2021/11/29 18:53:43;;;;;;;;;;;6.30;99.90;;;;;;8383727;28;20040;-73
2021/11/29 18:57:45;;;;;;;;;;;6.30;99.90;;;;;;8385526;28;20378;-73
2021/11/29 19:02:02;;;;;;;;;;;6.30;99.90;;;;;;8388085;28;20364;-73
2021/11/29 19:06:05;;;;;;;;;;;6.30;99.90;;;;;;8390961;28;19924;-73
2021/11/29 19:10:08;;;;;;;;;;;6.30;99.90;;;;;;8390925;28;19950;-73
2021/11/29 19:14:09;;;;;;;;;;;6.30;99.90;;;;;;8391467;28;21544;-73
2021/11/29 19:18:12;;;;;;;;;;;6.20;99.90;;;;;;8420657;27;19928;-73
2021/11/29 19:22:13;;;;;;;;;;;6.20;99.90;;;;;;8392887;28;20394;-74
2021/11/29 19:26:15;;;;;;;;;;;6.10;99.90;;;;;;8389671;28;20003;-73
2021/11/29 19:30:17;;;;;;;;;;;6.10;99.90;;;;;;8392022;28;20018;-74
2021/11/29 19:34:19;;;;;;;;;;;6.00;99.90;;;;;;8390780;28;19920;-73
2021/11/29 19:38:20;;;;;;;;;;;6.00;99.90;;;;;;8387748;28;19921;-74
2021/11/29 19:42:22;;;;;;;;;;;5.90;99.90;;;;;;8393528;28;19982;-73
2021/11/29 19:46:24;;;;;;;;;;;5.90;99.90;;;;;;8403489;28;19920;-73
2021/11/29 19:50:26;;;;;;;;;;;5.80;99.90;;;;;;8387631;28;19971;-73
2021/11/29 19:54:28;;;;;;;;;;;5.70;99.90;;;;;;8388663;28;19928;-73
2021/11/29 19:58:30;;;;;;;;;;;5.70;99.90;;;;;;8388660;28;19920;-73
2021/11/29 20:02:32;;;;;;;;;;;5.60;99.90;;;;;;8393539;28;19974;-73
2021/11/29 20:06:47;;;;;;;;;;;5.60;99.90;;;;;;8388760;28;19920;-74
2021/11/29 20:10:48;;;;;;;;;;;5.50;99.90;;;;;;8405295;28;19921;-73
2021/11/29 20:14:50;;;;;;;;;;;5.40;99.90;;;;;;8392702;28;19920;-73
2021/11/29 20:18:52;;;;;;;;;;;5.40;99.90;;;;;;8392589;28;19977;-73
2021/11/29 20:22:54;;;;;;;;;;;5.30;99.90;;;;;;8390337;28;19955;-73
2021/11/29 20:26:55;;;;;;;;;;;5.20;99.90;;;;;;8385565;28;20451;-73
2021/11/29 20:30:57;;;;;;;;;;;5.20;99.90;;;;;;8389229;28;20443;-73
2021/11/29 20:34:59;;;;;;;;;;;5.10;99.90;;;;;;8388107;28;19986;-73
2021/11/29 20:39:03;;;;;;;;;;;5.10;99.90;;;;;;8391663;28;19964;-73
2021/11/29 20:43:06;;;;;;;;;;;5.10;99.90;;;;;;8406364;28;19963;-73
2021/11/29 20:47:07;;;;;;;;;;;5.10;99.90;;;;;;8407056;28;20631;-73
2021/11/29 20:51:09;;;;;;;;;;;5.10;99.90;;;;;;8402835;28;20002;-73
2021/11/29 20:55:11;;;;;;;;;;;5.10;99.90;;;;;;8396577;28;20387;-73
2021/11/29 20:59:13;;;;;;;;;;;5.10;99.90;;;;;;8436521;27;19924;-73
2021/11/29 21:03:14;;;;;;;;;;;5.20;99.90;;;;;;8394671;28;19970;-73
2021/11/29 21:07:18;;;;;;;;;;;5.20;99.90;;;;;;8394742;28;20022;-73
2021/11/29 21:11:33;;;;;;;;;;;5.20;99.90;;;;;;8394293;28;20007;-74
2021/11/29 21:15:35;;;;;;;;;;;5.30;99.90;;;;;;8395245;28;20362;-75
2021/11/29 21:19:36;;;;;;;;;;;5.30;99.90;;;;;;8406518;28;19970;-73
2021/11/29 21:23:38;;;;;;;;;;;5.30;99.90;;;;;;8393289;28;19958;-73
2021/11/29 21:27:39;;;;;;;;;;;5.30;99.90;;;;;;8394538;28;20022;-73
2021/11/29 21:31:41;;;;;;;;;;;5.40;99.90;;;;;;8402020;28;19924;-73
2021/11/29 21:35:43;;;;;;;;;;;5.30;99.90;;;;;;8394475;28;19971;-73
2021/11/29 21:39:45;;;;;;;;;;;5.30;99.90;;;;;;8409685;28;19981;-74
2021/11/29 21:43:47;;;;;;;;;;;5.30;99.90;;;;;;8399282;28;19943;-74
2021/11/29 21:47:50;;;;;;;;;;;5.30;99.90;;;;;;8395736;28;20019;-74
2021/11/29 21:51:52;;;;;;;;;;;5.30;99.90;;;;;;8416876;28;19924;-73
2021/11/29 21:55:54;;;;;;;;;;;5.30;99.90;;;;;;8395404;28;19920;-73
2021/11/29 21:59:56;;;;;;;;;;;5.30;99.90;;;;;;8392308;28;19928;-74
2021/11/29 22:03:59;;;;;;;;;;;5.40;99.90;;;;;;8423752;28;19990;-73
2021/11/29 22:08:00;;;;;;;;;;;5.40;99.90;;;;;;8428144;28;19965;-73
2021/11/29 22:12:02;;;;;;;;;;;5.40;99.90;;;;;;8432607;28;20316;-73
2021/11/29 22:16:04;;;;;;;;;;;5.40;99.90;;;;;;8462986;27;20379;-73
2021/11/29 22:20:07;;;;;;;;;;;5.30;99.90;;;;;;8456485;27;19966;-73
2021/11/29 22:24:08;;;;;;;;;;;5.30;99.90;;;;;;8422944;28;19927;-73
2021/11/29 22:28:10;;;;;;;;;;;5.30;99.90;;;;;;8424908;28;19930;-74
2021/11/29 22:32:11;;;;;;;;;;;5.40;99.90;;;;;;8431815;28;19981;-73
2021/11/29 22:36:13;;;;;;;;;;;5.40;99.90;;;;;;8432219;28;19920;-73
2021/11/29 22:40:15;;;;;;;;;;;5.40;99.90;;;;;;8431114;28;20303;-74
2021/11/29 22:44:17;;;;;;;;;;;5.40;99.90;;;;;;8422018;28;19920;-73
2021/11/29 22:48:23;;;;;;;;;;;5.30;99.90;;;;;;8427071;28;19938;-73
2021/11/29 22:52:25;;;;;;;;;;;5.30;99.90;;;;;;8425027;28;19928;-74
2021/11/29 22:56:27;;;;;;;;;;;5.30;99.90;;;;;;8425714;28;19938;-73
2021/11/29 23:00:37;;;;;;;;;;;5.30;99.90;;;;;;8412214;28;19920;-73
2021/11/29 23:04:41;;;;;;;;;;;5.30;99.90;;;;;;8419386;28;19920;-73
2021/11/29 23:08:47;;;;;;;;;;;5.30;99.90;;;;;;8426281;28;20228;-73
2021/11/29 23:12:49;;;;;;;;;;;5.40;99.90;;;;;;8422980;28;19920;-73
2021/11/29 23:16:53;;;;;;;;;;;5.40;99.90;;;;;;8429961;28;19943;-73
2021/11/29 23:20:54;;;;;;;;;;;5.40;99.90;;;;;;8428214;28;19958;-73
2021/11/29 23:24:56;;;;;;;;;;;5.40;99.90;;;;;;8417545;28;19927;-73
2021/11/29 23:28:58;;;;;;;;;;;5.30;99.90;;;;;;8422033;28;19919;-73
2021/11/29 23:33:00;;;;;;;;;;;5.40;99.90;;;;;;8427595;28;19931;-73
2021/11/29 23:37:01;;;;;;;;;;;5.30;99.90;;;;;;8434651;28;19923;-73
2021/11/29 23:41:03;;;;;;;;;;;5.30;99.90;;;;;;8457167;27;20335;-73
2021/11/29 23:45:05;;;;;;;;;;;5.30;99.90;;;;;;8429488;28;19927;-73
2021/11/29 23:49:12;;;;;;;;;;;5.30;99.90;;;;;;8422526;28;20049;-74